首页
METAR-TAF:

METAR-TAF

机场 :

First Flight Airport

Kill Devil Hills, 北卡罗来纳州, 美国

纬度: 36-01N, 经度: 075-40W, 海拔: 4米

当前天气观测

该预报发布于20分钟前的11:00 UTC
静风
温度 13°C
湿度 67%
气压 1015 hPa
能見度: 16.1公里
天空无云

METAR: KFFA 211100Z AUTO 00000KT 10SM CLR 13/07 A2997 RMK AO2 T01260068

时间: 07:20 (11:20 UTC)


TAF: 丢失

超过4000个机场的气象观测和天气预报(METAR&TAF报告)。

可查询的气象台以黄色和红色小点在地图上表示。

将鼠标移到小点上方,可查看气象台名称。

然后点击查看天气观测和预报。

如需切换地图:点击带黑十字的绿色按钮放大地图;点击带横线的绿色按钮缩小地图;或者点击绿色箭头查看邻近地区的地图。


METAR-TAF: